• Join FlightAware (Why Join?)
  • Login
  • US Flag 
12:05AM EDT


 

Airport Tracker/Info


-or-


 

Live Flight TrackerFlight Track Log ✈ N7339F ✈ 26-Sep-2013 ✈ KASW - KMFD

Flight Track Log - Related Links

Times and Time Zones

All times are in EDT time to prevent confusion due to time zone crossing. See the N7339F flight status page for this flight to view local times or setup timezone preferences in your user account.

Time Position Orientation Groundspeed Altitude Reporting Facility
EDT Latitude Longitude Course Direction KTS MPH feet Rate Location/Type
01:40PM 41.0286 -85.6903 99° East 93 107 3,500  Level Cleveland Center
01:41PM 41.0264 -85.6500 94° East 93 107 3,600  Climbing Chicago Center
01:42PM 41.0250 -85.6156 93° East 94 108 3,600  Level Chicago Center
01:43PM 41.0228 -85.5803 95° East 95 109 3,600  Level Chicago Center
01:44PM 41.2389 -85.5508 99° East  Level FlightAware Approximate
01:44PM 41.0211 -85.5436 93° East 97 112 3,600  Level Chicago Center
01:45PM 41.2328 -85.5026 99° East  Level FlightAware Approximate
01:45PM 41.0186 -85.5078 95° East 98 113 3,600  Level Chicago Center
01:46PM 41.0175 -85.4636 92° East 99 114 3,600  Level Chicago Center
01:47PM 41.0139 -85.4272 97° East 100 115 3,600  Level Chicago Center
01:48PM 41.0125 -85.3919 93° East 99 114 3,600  Level Chicago Center
01:49PM 41.0111 -85.3575 93° East 96 110 3,600  Level Chicago Center
01:50PM 41.0097 -85.3231 93° East 96 110 3,600  Level Chicago Center
01:51PM 41.0072 -85.2875 95° East 96 110 3,600  Level Chicago Center
01:52PM 41.0058 -85.2447 92° East 96 110 3,600  Level Chicago Center
01:53PM 41.0033 -85.2086 95° East 97 112 3,600  Level Chicago Center
01:54PM 41.0008 -85.1719 95° East 99 114 3,600  Level Chicago Center
01:55PM 40.9983 -85.1356 95° East 99 114 3,600  Level Chicago Center
01:56PM 40.9967 -85.0994 93° East 99 114 3,600  Level Chicago Center
01:57PM 40.9947 -85.0553 93° East 99 114 3,600  Level Chicago Center
01:59PM 40.9931 -85.0194 94° East 99 114 3,600  Level Chicago Center
02:00PM 40.9903 -84.9817 96° East 102 117 3,600  Level Chicago Center
02:01PM 40.9886 -84.9458 94° East 100 115 3,600  Level Chicago Center
02:02PM 40.9861 -84.9086 95° East 100 115 3,600 -60 Level Chicago Center
02:03PM 40.9842 -84.8719 94° East 101 116 3,500 -60 Descending Chicago Center
02:04PM 40.9819 -84.8267 94° East 102 117 3,500  Level Chicago Center
02:05PM 40.9789 -84.7883 96° East 103 119 3,500  Level Chicago Center
02:06PM 40.9775 -84.7506 93° East 103 119 3,500  Level Chicago Center
02:07PM 40.9750 -84.7133 95° East 103 119 3,500  Level Chicago Center
02:08PM 40.9733 -84.6781 94° East 100 115 3,500  Level Chicago Center
02:09PM 40.9706 -84.6325 95° East 101 116 3,500  Level Chicago Center
02:10PM 40.9681 -84.5947 95° East 103 119 3,500  Level Chicago Center
02:11PM 40.9664 -84.5606 94° East 99 114 3,500  Level Chicago Center
02:12PM 40.9650 -84.5281 93° East 94 108 3,500  Level Chicago Center
02:13PM 40.9619 -84.4931 97° East 94 108 3,500  Level Chicago Center
02:14PM 40.9608 -84.4603 93° East 92 106 3,500  Level Chicago Center
02:15PM 40.9575 -84.4181 96° East 95 109 3,500  Level Chicago Center
02:16PM 40.9567 -84.3836 92° East 94 108 3,500  Level Chicago Center
02:17PM 40.9536 -84.3506 97° East 93 107 3,500  Level Chicago Center
02:18PM 40.9508 -84.3139 96° East 96 110 3,500  Level Chicago Center
02:19PM 40.9489 -84.2739 94° East 96 110 3,500  Level Chicago Center
02:22PM 40.9459 -84.2210 94° East  Level FlightAware Approximate
02:29PM 40.9296 -83.9363 94° East  Level FlightAware Approximate
02:30PM 40.9272 -83.8956 94° East  Level FlightAware Approximate
02:31PM 40.9248 -83.8549 94° East  Level FlightAware Approximate
02:32PM 40.9224 -83.8143 94° East  Level FlightAware Approximate
02:33PM 40.9199 -83.7736 95° East  Level FlightAware Approximate
02:34PM 40.9175 -83.7330 95° East  Level FlightAware Approximate
02:35PM 40.9150 -83.6923 95° East  Level FlightAware Approximate
02:36PM 40.9125 -83.6517 95° East  Level FlightAware Approximate
02:37PM 40.9100 -83.6111 95° East  Level FlightAware Approximate
02:53PM 40.8639 -83.0586 95° East 94 108 3,500  Level Cleveland Center
02:54PM 40.8603 -83.0217 97° East 96 110 3,500  Level Cleveland Center
02:55PM 40.8564 -82.9767 97° East 101 116 3,500  Level Cleveland Center
02:56PM 40.8511 -82.9403 101° East 101 116 3,500  Level Cleveland Center
02:57PM 40.8511 -82.9033 90° East 101 116 3,500  Level Cleveland Center
02:58PM 40.8483 -82.8672 96° East 99 114 3,500  Level Cleveland Center
03:00PM 40.8458 -82.8289 95° East 101 116 3,500  Level Cleveland Center
03:01PM 40.8425 -82.7911 97° East 103 119 3,600  Climbing Cleveland Center
03:02PM 40.8381 -82.7481 98° East 101 116 3,500 -60 Descending Cleveland Center
03:03PM 40.8358 -82.7111 95° East 101 116 3,500 -240 Level Cleveland Center
03:04PM 40.8314 -82.6747 99° East 100 115 3,100 -360 Descending Cleveland Center
03:05PM 40.8261 -82.6350 100° East 104 120 2,800 -300 Descending Cleveland Center
03:06PM 40.8222 -82.5983 98° East 104 120 2,500 -300 Descending Cleveland Center
03:07PM 40.8194 -82.5611 96° East 102 117 2,300 -180 Descending Cleveland Center
03:08PM 40.8092 -82.5267 112° Southeast 106 122 2,200 -180 Descending Cleveland Center
03:09PM 40.7986 -82.5014 119° Southeast 95 109 2,000 -240 Descending Cleveland Center
03:10PM 40.8075 -82.4875 50° Northeast 86 99 1,800 -240 Descending Cleveland Center